<?xml version="1.0" encoding="UTF-8" standalone="no" ?>
<gpx xmlns="http://www.topografix.com/GPX/1/1" xmlns:xsi="http://www.w3.org/2001/XMLSchema-instance" xsi:schemaLocation="http://www.topografix.com/GPX/1/1 http://www.topografix.com/GPX/1/1/gpx.xsd" version="1.1" creator="VisuGPX - https://www.visugpx.com">
  <metadata>
    <name>64 - PEDESTRE - GR 108A de Pont de Camps à Gabas - Entretien balisage</name>
    <desc><![CDATA[Soleil parcours fait en descendant]]></desc>
  </metadata>
  <wpt lat="42.88515" lon="-0.39904">
    <ele>1299.0974121094</ele>
    <name><![CDATA[011]]></name>
    <desc><![CDATA[10-MAI-15 10:56:28]]></desc>
    <cmt><![CDATA[10-MAI-15 10:56:28]]></cmt>
  </wpt>
  <trk>
    <name><![CDATA[ACTIVE LOG 011]]></name>
    <trkseg>
      <trkpt lat="42.86357" lon="-0.39294">
        <ele>1268.5969238281</ele>
        <time>2015-05-10T07:50:27Z</time>
      </trkpt>
      <trkpt lat="42.86356" lon="-0.39294">
        <ele>1269.5583496094</ele>
        <time>2015-05-10T07:50:28Z</time>
      </trkpt>
      <trkpt lat="42.86357" lon="-0.39294">
        <ele>1269.0776367188</ele>
        <time>2015-05-10T07:50:29Z</time>
      </trkpt>
      <trkpt lat="42.86366" lon="-0.3929">
        <ele>1269.0776367188</ele>
        <time>2015-05-10T07:50:49Z</time>
      </trkpt>
      <trkpt lat="42.86365" lon="-0.39285">
        <ele>1269.0776367188</ele>
        <time>2015-05-10T07:51:03Z</time>
      </trkpt>
      <trkpt lat="42.86369" lon="-0.39279">
        <ele>1268.5969238281</ele>
        <time>2015-05-10T07:51:10Z</time>
      </trkpt>
      <trkpt lat="42.86355" lon="-0.39251">
        <ele>1268.5969238281</ele>
        <time>2015-05-10T07:51:33Z</time>
      </trkpt>
      <trkpt lat="42.86348" lon="-0.39243">
        <ele>1268.5969238281</ele>
        <time>2015-05-10T07:51:41Z</time>
      </trkpt>
      <trkpt lat="42.86345" lon="-0.39237">
        <ele>1269.0776367188</ele>
        <time>2015-05-10T07:51:46Z</time>
      </trkpt>
      <trkpt lat="42.8634" lon="-0.39221">
        <ele>1270.0388183594</ele>
        <time>2015-05-10T07:52:03Z</time>
      </trkpt>
      <trkpt lat="42.86342" lon="-0.39224">
        <ele>1269.5583496094</ele>
        <time>2015-05-10T07:52:12Z</time>
      </trkpt>
      <trkpt lat="42.86339" lon="-0.3923">
        <ele>1271.0002441406</ele>
        <time>2015-05-10T07:52:25Z</time>
      </trkpt>
      <trkpt lat="42.86338" lon="-0.39231">
        <ele>1271.4807128906</ele>
        <time>2015-05-10T07:52:28Z</time>
      </trkpt>
      <trkpt lat="42.86339" lon="-0.3923">
        <ele>1271.0002441406</ele>
        <time>2015-05-10T07:52:40Z</time>
      </trkpt>
      <trkpt lat="42.86341" lon="-0.3923">
        <ele>1270.51953125</ele>
        <time>2015-05-10T07:52:53Z</time>
      </trkpt>
      <trkpt lat="42.86333" lon="-0.39233">
        <ele>1272.9228515625</ele>
        <time>2015-05-10T07:53:13Z</time>
      </trkpt>
      <trkpt lat="42.86333" lon="-0.39233">
        <ele>1271.9614257812</ele>
        <time>2015-05-10T07:55:18Z</time>
      </trkpt>
      <trkpt lat="42.86333" lon="-0.39232">
        <ele>1271.4807128906</ele>
        <time>2015-05-10T07:55:33Z</time>
      </trkpt>
      <trkpt lat="42.86338" lon="-0.3923">
        <ele>1270.51953125</ele>
        <time>2015-05-10T07:55:39Z</time>
      </trkpt>
      <trkpt lat="42.86343" lon="-0.39223">
        <ele>1269.0776367188</ele>
        <time>2015-05-10T07:55:53Z</time>
      </trkpt>
      <trkpt lat="42.86344" lon="-0.39222">
        <ele>1269.0776367188</ele>
        <time>2015-05-10T07:56:08Z</time>
      </trkpt>
      <trkpt lat="42.86344" lon="-0.39218">
        <ele>1270.0388183594</ele>
        <time>2015-05-10T07:56:15Z</time>
      </trkpt>
      <trkpt lat="42.86337" lon="-0.39205">
        <ele>1270.0388183594</ele>
        <time>2015-05-10T07:56:26Z</time>
      </trkpt>
      <trkpt lat="42.86336" lon="-0.39194">
        <ele>1270.0388183594</ele>
        <time>2015-05-10T07:56:41Z</time>
      </trkpt>
      <trkpt lat="42.86335" lon="-0.39193">
        <ele>1270.51953125</ele>
        <time>2015-05-10T07:56:43Z</time>
      </trkpt>
      <trkpt lat="42.86332" lon="-0.39179">
        <ele>1271.4807128906</ele>
        <time>2015-05-10T07:56:59Z</time>
      </trkpt>
      <trkpt lat="42.86329" lon="-0.3917">
        <ele>1271.4807128906</ele>
        <time>2015-05-10T07:57:06Z</time>
      </trkpt>
      <trkpt lat="42.86326" lon="-0.39164">
        <ele>1271.9614257812</ele>
        <time>2015-05-10T07:57:20Z</time>
      </trkpt>
      <trkpt lat="42.86327" lon="-0.3917">
        <ele>1271.4807128906</ele>
        <time>2015-05-10T07:57:38Z</time>
      </trkpt>
      <trkpt lat="42.86326" lon="-0.39175">
        <ele>1271.9614257812</ele>
        <time>2015-05-10T07:57:46Z</time>
      </trkpt>
      <trkpt lat="42.86323" lon="-0.39177">
        <ele>1271.4807128906</ele>
        <time>2015-05-10T07:57:57Z</time>
      </trkpt>
      <trkpt lat="42.8632" lon="-0.39177">
        <ele>1271.9614257812</ele>
        <time>2015-05-10T07:58:08Z</time>
      </trkpt>
      <trkpt lat="42.86316" lon="-0.39175">
        <ele>1271.9614257812</ele>
        <time>2015-05-10T07:58:21Z</time>
      </trkpt>
      <trkpt lat="42.86312" lon="-0.39176">
        <ele>1271.4807128906</ele>
        <time>2015-05-10T07:58:36Z</time>
      </trkpt>
      <trkpt lat="42.86307" lon="-0.39177">
        <ele>1271.9614257812</ele>
        <time>2015-05-10T07:58:41Z</time>
      </trkpt>
      <trkpt lat="42.86304" lon="-0.39174">
        <ele>1271.9614257812</ele>
        <time>2015-05-10T07:58:56Z</time>
      </trkpt>
      <trkpt lat="42.86303" lon="-0.39173">
        <ele>1271.9614257812</ele>
        <time>2015-05-10T07:59:31Z</time>
      </trkpt>
      <trkpt lat="42.86308" lon="-0.39174">
        <ele>1272.4421386719</ele>
        <time>2015-05-10T08:00:07Z</time>
      </trkpt>
      <trkpt lat="42.86307" lon="-0.39174">
        <ele>1272.9228515625</ele>
        <time>2015-05-10T08:01:03Z</time>
      </trkpt>
      <trkpt lat="42.86305" lon="-0.39174">
        <ele>1272.4421386719</ele>
        <time>2015-05-10T08:01:53Z</time>
      </trkpt>
      <trkpt lat="42.86304" lon="-0.39175">
        <ele>1272.4421386719</ele>
        <time>2015-05-10T08:03:11Z</time>
      </trkpt>
      <trkpt lat="42.86324" lon="-0.39176">
        <ele>1271.9614257812</ele>
        <time>2015-05-10T08:03:28Z</time>
      </trkpt>
      <trkpt lat="42.86325" lon="-0.39176">
        <ele>1271.4807128906</ele>
        <time>2015-05-10T08:03:29Z</time>
      </trkpt>
      <trkpt lat="42.86326" lon="-0.39173">
        <ele>1271.9614257812</ele>
        <time>2015-05-10T08:03:31Z</time>
      </trkpt>
      <trkpt lat="42.86322" lon="-0.3917">
        <ele>1272.9228515625</ele>
        <time>2015-05-10T08:03:35Z</time>
      </trkpt>
      <trkpt lat="42.8632" lon="-0.39168">
        <ele>1272.4421386719</ele>
        <time>2015-05-10T08:03:37Z</time>
      </trkpt>
      <trkpt lat="42.86313" lon="-0.39167">
        <ele>1273.8840332031</ele>
        <time>2015-05-10T08:03:44Z</time>
      </trkpt>
      <trkpt lat="42.86304" lon="-0.39153">
        <ele>1277.2490234375</ele>
        <time>2015-05-10T08:03:59Z</time>
      </trkpt>
      <trkpt lat="42.86304" lon="-0.39149">
        <ele>1277.7294921875</ele>
        <time>2015-05-10T08:04:02Z</time>
      </trkpt>
      <trkpt lat="42.86306" lon="-0.39144">
        <ele>1277.7294921875</ele>
        <time>2015-05-10T08:04:06Z</time>
      </trkpt>
      <trkpt lat="42.86321" lon="-0.39137">
        <ele>1278.6909179688</ele>
        <time>2015-05-10T08:04:21Z</time>
      </trkpt>
      <trkpt lat="42.86333" lon="-0.39136">
        <ele>1278.2102050781</ele>
        <time>2015-05-10T08:04:35Z</time>
      </trkpt>
      <trkpt lat="42.86358" lon="-0.39135">
        <ele>1279.1713867188</ele>
        <time>2015-05-10T08:04:55Z</time>
      </trkpt>
      <trkpt lat="42.86382" lon="-0.39138">
        <ele>1282.5361328125</ele>
        <time>2015-05-10T08:05:16Z</time>
      </trkpt>
      <trkpt lat="42.86406" lon="-0.39145">
        <ele>1283.0166015625</ele>
        <time>2015-05-10T08:05:38Z</time>
      </trkpt>
      <trkpt lat="42.86409" lon="-0.39146">
        <ele>1283.0166015625</ele>
        <time>2015-05-10T08:05:40Z</time>
      </trkpt>
      <trkpt lat="42.86425" lon="-0.39147">
        <ele>1283.9780273438</ele>
        <time>2015-05-10T08:05:55Z</time>
      </trkpt>
      <trkpt lat="42.86442" lon="-0.39141">
        <ele>1284.4587402344</ele>
        <time>2015-05-10T08:06:13Z</time>
      </trkpt>
      <trkpt lat="42.86448" lon="-0.39144">
        <ele>1284.939453125</ele>
        <time>2015-05-10T08:06:18Z</time>
      </trkpt>
      <trkpt lat="42.86451" lon="-0.39148">
        <ele>1284.939453125</ele>
        <time>2015-05-10T08:06:22Z</time>
      </trkpt>
      <trkpt lat="42.86456" lon="-0.3916">
        <ele>1284.939453125</ele>
        <time>2015-05-10T08:06:30Z</time>
      </trkpt>
      <trkpt lat="42.8647" lon="-0.39182">
        <ele>1283.9780273438</ele>
        <time>2015-05-10T08:06:47Z</time>
      </trkpt>
      <trkpt lat="42.86487" lon="-0.39197">
        <ele>1283.9780273438</ele>
        <time>2015-05-10T08:07:05Z</time>
      </trkpt>
      <trkpt lat="42.8649" lon="-0.39197">
        <ele>1284.4587402344</ele>
        <time>2015-05-10T08:07:07Z</time>
      </trkpt>
      <trkpt lat="42.86508" lon="-0.3921">
        <ele>1284.4587402344</ele>
        <time>2015-05-10T08:07:25Z</time>
      </trkpt>
      <trkpt lat="42.8653" lon="-0.39219">
        <ele>1284.4587402344</ele>
        <time>2015-05-10T08:07:42Z</time>
      </trkpt>
      <trkpt lat="42.86557" lon="-0.39242">
        <ele>1284.4587402344</ele>
        <time>2015-05-10T08:08:08Z</time>
      </trkpt>
      <trkpt lat="42.86571" lon="-0.39251">
        <ele>1283.9780273438</ele>
        <time>2015-05-10T08:08:21Z</time>
      </trkpt>
      <trkpt lat="42.86582" lon="-0.39258">
        <ele>1283.0166015625</ele>
        <time>2015-05-10T08:08:31Z</time>
      </trkpt>
      <trkpt lat="42.866" lon="-0.3926">
        <ele>1281.5747070312</ele>
        <time>2015-05-10T08:08:47Z</time>
      </trkpt>
      <trkpt lat="42.86623" lon="-0.39272">
        <ele>1281.0942382812</ele>
        <time>2015-05-10T08:09:08Z</time>
      </trkpt>
      <trkpt lat="42.86641" lon="-0.39286">
        <ele>1279.6520996094</ele>
        <time>2015-05-10T08:09:26Z</time>
      </trkpt>
      <trkpt lat="42.8665" lon="-0.39292">
        <ele>1279.1713867188</ele>
        <time>2015-05-10T08:09:34Z</time>
      </trkpt>
      <trkpt lat="42.86657" lon="-0.39295">
        <ele>1278.6909179688</ele>
        <time>2015-05-10T08:09:41Z</time>
      </trkpt>
      <trkpt lat="42.8666" lon="-0.39294">
        <ele>1277.7294921875</ele>
        <time>2015-05-10T08:09:43Z</time>
      </trkpt>
      <trkpt lat="42.86665" lon="-0.39296">
        <ele>1277.7294921875</ele>
        <time>2015-05-10T08:09:48Z</time>
      </trkpt>
      <trkpt lat="42.86688" lon="-0.39304">
        <ele>1276.2875976562</ele>
        <time>2015-05-10T08:10:10Z</time>
      </trkpt>
      <trkpt lat="42.86709" lon="-0.39303">
        <ele>1273.8840332031</ele>
        <time>2015-05-10T08:10:30Z</time>
      </trkpt>
      <trkpt lat="42.86715" lon="-0.39301">
        <ele>1273.8840332031</ele>
        <time>2015-05-10T08:10:35Z</time>
      </trkpt>
      <trkpt lat="42.86736" lon="-0.39295">
        <ele>1273.4035644531</ele>
        <time>2015-05-10T08:10:54Z</time>
      </trkpt>
      <trkpt lat="42.86756" lon="-0.39295">
        <ele>1271.9614257812</ele>
        <time>2015-05-10T08:11:12Z</time>
      </trkpt>
      <trkpt lat="42.86778" lon="-0.39291">
        <ele>1269.0776367188</ele>
        <time>2015-05-10T08:11:32Z</time>
      </trkpt>
      <trkpt lat="42.86799" lon="-0.39281">
        <ele>1268.1162109375</ele>
        <time>2015-05-10T08:11:52Z</time>
      </trkpt>
      <trkpt lat="42.86811" lon="-0.39279">
        <ele>1266.6743164062</ele>
        <time>2015-05-10T08:12:09Z</time>
      </trkpt>
      <trkpt lat="42.86811" lon="-0.39281">
        <ele>1266.6743164062</ele>
        <time>2015-05-10T08:12:11Z</time>
      </trkpt>
      <trkpt lat="42.86812" lon="-0.39285">
        <ele>1266.6743164062</ele>
        <time>2015-05-10T08:12:26Z</time>
      </trkpt>
      <trkpt lat="42.86814" lon="-0.39284">
        <ele>1266.1936035156</ele>
        <time>2015-05-10T08:12:39Z</time>
      </trkpt>
      <trkpt lat="42.86815" lon="-0.39283">
        <ele>1266.1936035156</ele>
        <time>2015-05-10T08:12:55Z</time>
      </trkpt>
      <trkpt lat="42.86815" lon="-0.39283">
        <ele>1265.7131347656</ele>
        <time>2015-05-10T08:13:13Z</time>
      </trkpt>
      <trkpt lat="42.86816" lon="-0.39283">
        <ele>1266.1936035156</ele>
        <time>2015-05-10T08:15:17Z</time>
      </trkpt>
      <trkpt lat="42.86816" lon="-0.39284">
        <ele>1266.1936035156</ele>
        <time>2015-05-10T08:15:59Z</time>
      </trkpt>
      <trkpt lat="42.86816" lon="-0.39284">
        <ele>1266.6743164062</ele>
        <time>2015-05-10T08:16:17Z</time>
      </trkpt>
      <trkpt lat="42.86815" lon="-0.39285">
        <ele>1265.7131347656</ele>
        <time>2015-05-10T08:16:20Z</time>
      </trkpt>
      <trkpt lat="42.86811" lon="-0.39288">
        <ele>1266.1936035156</ele>
        <time>2015-05-10T08:16:27Z</time>
      </trkpt>
      <trkpt lat="42.86809" lon="-0.39293">
        <ele>1266.1936035156</ele>
        <time>2015-05-10T08:16:31Z</time>
      </trkpt>
      <trkpt lat="42.86808" lon="-0.39308">
        <ele>1265.232421875</ele>
        <time>2015-05-10T08:16:47Z</time>
      </trkpt>
      <trkpt lat="42.86813" lon="-0.39308">
        <ele>1264.2709960938</ele>
        <time>2015-05-10T08:16:52Z</time>
      </trkpt>
      <trkpt lat="42.86822" lon="-0.39307">
        <ele>1262.8291015625</ele>
        <time>2015-05-10T08:17:03Z</time>
      </trkpt>
      <trkpt lat="42.86847" lon="-0.39311">
        <ele>1259.9448242188</ele>
        <time>2015-05-10T08:17:26Z</time>
      </trkpt>
      <trkpt lat="42.86851" lon="-0.39314">
        <ele>1259.4643554688</ele>
        <time>2015-05-10T08:17:32Z</time>
      </trkpt>
      <trkpt lat="42.86858" lon="-0.39312">
        <ele>1258.9836425781</ele>
        <time>2015-05-10T08:17:37Z</time>
      </trkpt>
      <trkpt lat="42.86881" lon="-0.39308">
        <ele>1258.0224609375</ele>
        <time>2015-05-10T08:17:56Z</time>
      </trkpt>
      <trkpt lat="42.86906" lon="-0.39304">
        <ele>1257.5417480469</ele>
        <time>2015-05-10T08:18:18Z</time>
      </trkpt>
      <trkpt lat="42.86927" lon="-0.39297">
        <ele>1257.5417480469</ele>
        <time>2015-05-10T08:18:38Z</time>
      </trkpt>
      <trkpt lat="42.8695" lon="-0.39285">
        <ele>1255.1384277344</ele>
        <time>2015-05-10T08:18:59Z</time>
      </trkpt>
      <trkpt lat="42.86971" lon="-0.39282">
        <ele>1255.619140625</ele>
        <time>2015-05-10T08:19:19Z</time>
      </trkpt>
      <trkpt lat="42.86992" lon="-0.39293">
        <ele>1257.5417480469</ele>
        <time>2015-05-10T08:19:39Z</time>
      </trkpt>
      <trkpt lat="42.8701" lon="-0.39293">
        <ele>1257.5417480469</ele>
        <time>2015-05-10T08:19:55Z</time>
      </trkpt>
      <trkpt lat="42.87024" lon="-0.39284">
        <ele>1256.099609375</ele>
        <time>2015-05-10T08:20:10Z</time>
      </trkpt>
      <trkpt lat="42.87026" lon="-0.39284">
        <ele>1256.5803222656</ele>
        <time>2015-05-10T08:20:12Z</time>
      </trkpt>
      <trkpt lat="42.87033" lon="-0.39281">
        <ele>1257.0610351562</ele>
        <time>2015-05-10T08:20:19Z</time>
      </trkpt>
      <trkpt lat="42.87056" lon="-0.39278">
        <ele>1257.5417480469</ele>
        <time>2015-05-10T08:20:40Z</time>
      </trkpt>
      <trkpt lat="42.87081" lon="-0.39279">
        <ele>1257.5417480469</ele>
        <time>2015-05-10T08:21:02Z</time>
      </trkpt>
      <trkpt lat="42.87092" lon="-0.39281">
        <ele>1258.5029296875</ele>
        <time>2015-05-10T08:21:12Z</time>
      </trkpt>
      <trkpt lat="42.87111" lon="-0.39291">
        <ele>1258.5029296875</ele>
        <time>2015-05-10T08:21:30Z</time>
      </trkpt>
      <trkpt lat="42.87127" lon="-0.39305">
        <ele>1259.9448242188</ele>
        <time>2015-05-10T08:21:46Z</time>
      </trkpt>
      <trkpt lat="42.87131" lon="-0.39306">
        <ele>1260.42578125</ele>
        <time>2015-05-10T08:21:50Z</time>
      </trkpt>
      <trkpt lat="42.87155" lon="-0.39315">
        <ele>1262.8291015625</ele>
        <time>2015-05-10T08:22:12Z</time>
      </trkpt>
      <trkpt lat="42.87166" lon="-0.39314">
        <ele>1263.7902832031</ele>
        <time>2015-05-10T08:22:25Z</time>
      </trkpt>
      <trkpt lat="42.87185" lon="-0.39321">
        <ele>1263.7902832031</ele>
        <time>2015-05-10T08:22:44Z</time>
      </trkpt>
      <trkpt lat="42.8721" lon="-0.39324">
        <ele>1262.3483886719</ele>
        <time>2015-05-10T08:23:07Z</time>
      </trkpt>
      <trkpt lat="42.87232" lon="-0.39329">
        <ele>1263.3098144531</ele>
        <time>2015-05-10T08:23:28Z</time>
      </trkpt>
      <trkpt lat="42.87251" lon="-0.39336">
        <ele>1263.7902832031</ele>
        <time>2015-05-10T08:23:46Z</time>
      </trkpt>
      <trkpt lat="42.8725" lon="-0.39338">
        <ele>1262.3483886719</ele>
        <time>2015-05-10T08:23:57Z</time>
      </trkpt>
      <trkpt lat="42.8725" lon="-0.39337">
        <ele>1263.3098144531</ele>
        <time>2015-05-10T08:24:29Z</time>
      </trkpt>
      <trkpt lat="42.8725" lon="-0.39338">
        <ele>1264.2709960938</ele>
        <time>2015-05-10T08:24:51Z</time>
      </trkpt>
      <trkpt lat="42.87251" lon="-0.39339">
        <ele>1263.7902832031</ele>
        <time>2015-05-10T08:25:10Z</time>
      </trkpt>
      <trkpt lat="42.8725" lon="-0.39337">
        <ele>1263.7902832031</ele>
        <time>2015-05-10T08:25:58Z</time>
      </trkpt>
      <trkpt lat="42.87254" lon="-0.39337">
        <ele>1263.3098144531</ele>
        <time>2015-05-10T08:26:09Z</time>
      </trkpt>
      <trkpt lat="42.87259" lon="-0.39332">
        <ele>1261.8679199219</ele>
        <time>2015-05-10T08:26:21Z</time>
      </trkpt>
      <trkpt lat="42.87264" lon="-0.39331">
        <ele>1261.3872070312</ele>
        <time>2015-05-10T08:26:33Z</time>
      </trkpt>
      <trkpt lat="42.87273" lon="-0.39334">
        <ele>1260.9064941406</ele>
        <time>2015-05-10T08:26:48Z</time>
      </trkpt>
      <trkpt lat="42.87292" lon="-0.3935">
        <ele>1259.9448242188</ele>
        <time>2015-05-10T08:27:09Z</time>
      </trkpt>
      <trkpt lat="42.87312" lon="-0.3936">
        <ele>1259.4643554688</ele>
        <time>2015-05-10T08:27:29Z</time>
      </trkpt>
      <trkpt lat="42.8733" lon="-0.39375">
        <ele>1259.9448242188</ele>
        <time>2015-05-10T08:27:48Z</time>
      </trkpt>
      <trkpt lat="42.87349" lon="-0.39395">
        <ele>1259.4643554688</ele>
        <time>2015-05-10T08:28:10Z</time>
      </trkpt>
      <trkpt lat="42.87373" lon="-0.39411">
        <ele>1258.9836425781</ele>
        <time>2015-05-10T08:28:33Z</time>
      </trkpt>
      <trkpt lat="42.87392" lon="-0.39426">
        <ele>1258.5029296875</ele>
        <time>2015-05-10T08:28:53Z</time>
      </trkpt>
      <trkpt lat="42.87412" lon="-0.39445">
        <ele>1259.4643554688</ele>
        <time>2015-05-10T08:29:14Z</time>
      </trkpt>
      <trkpt lat="42.87427" lon="-0.39461">
        <ele>1259.4643554688</ele>
        <time>2015-05-10T08:29:32Z</time>
      </trkpt>
      <trkpt lat="42.87438" lon="-0.39471">
        <ele>1259.4643554688</ele>
        <time>2015-05-10T08:29:47Z</time>
      </trkpt>
      <trkpt lat="42.87444" lon="-0.39475">
        <ele>1259.4643554688</ele>
        <time>2015-05-10T08:30:05Z</time>
      </trkpt>
      <trkpt lat="42.87453" lon="-0.39479">
        <ele>1259.4643554688</ele>
        <time>2015-05-10T08:30:18Z</time>
      </trkpt>
      <trkpt lat="42.87455" lon="-0.3948">
        <ele>1258.9836425781</ele>
        <time>2015-05-10T08:30:20Z</time>
      </trkpt>
      <trkpt lat="42.87474" lon="-0.39485">
        <ele>1257.5417480469</ele>
        <time>2015-05-10T08:30:37Z</time>
      </trkpt>
      <trkpt lat="42.87497" lon="-0.39488">
        <ele>1256.5803222656</ele>
        <time>2015-05-10T08:30:58Z</time>
      </trkpt>
      <trkpt lat="42.87518" lon="-0.39487">
        <ele>1256.099609375</ele>
        <time>2015-05-10T08:31:16Z</time>
      </trkpt>
      <trkpt lat="42.87544" lon="-0.39481">
        <ele>1257.0610351562</ele>
        <time>2015-05-10T08:31:39Z</time>
      </trkpt>
      <trkpt lat="42.87566" lon="-0.39475">
        <ele>1255.619140625</ele>
        <time>2015-05-10T08:31:59Z</time>
      </trkpt>
      <trkpt lat="42.87586" lon="-0.3947">
        <ele>1254.6577148438</ele>
        <time>2015-05-10T08:32:17Z</time>
      </trkpt>
      <trkpt lat="42.87603" lon="-0.39478">
        <ele>1255.619140625</ele>
        <time>2015-05-10T08:32:35Z</time>
      </trkpt>
      <trkpt lat="42.87609" lon="-0.39483">
        <ele>1255.619140625</ele>
        <time>2015-05-10T08:32:42Z</time>
      </trkpt>
      <trkpt lat="42.87627" lon="-0.39491">
        <ele>1257.0610351562</ele>
        <time>2015-05-10T08:33:00Z</time>
      </trkpt>
      <trkpt lat="42.87636" lon="-0.39496">
        <ele>1258.0224609375</ele>
        <time>2015-05-10T08:33:11Z</time>
      </trkpt>
      <trkpt lat="42.87652" lon="-0.39497">
        <ele>1258.0224609375</ele>
        <time>2015-05-10T08:33:23Z</time>
      </trkpt>
      <trkpt lat="42.87673" lon="-0.39493">
        <ele>1256.5803222656</ele>
        <time>2015-05-10T08:33:38Z</time>
      </trkpt>
      <trkpt lat="42.87684" lon="-0.39496">
        <ele>1255.1384277344</ele>
        <time>2015-05-10T08:33:52Z</time>
      </trkpt>
      <trkpt lat="42.87682" lon="-0.39494">
        <ele>1255.1384277344</ele>
        <time>2015-05-10T08:33:55Z</time>
      </trkpt>
      <trkpt lat="42.87705" lon="-0.39497">
        <ele>1256.5803222656</ele>
        <time>2015-05-10T08:34:13Z</time>
      </trkpt>
      <trkpt lat="42.87729" lon="-0.395">
        <ele>1256.099609375</ele>
        <time>2015-05-10T08:34:33Z</time>
      </trkpt>
      <trkpt lat="42.87731" lon="-0.39501">
        <ele>1256.5803222656</ele>
        <time>2015-05-10T08:34:35Z</time>
      </trkpt>
      <trkpt lat="42.87734" lon="-0.39501">
        <ele>1256.099609375</ele>
        <time>2015-05-10T08:34:40Z</time>
      </trkpt>
      <trkpt lat="42.87744" lon="-0.39508">
        <ele>1257.5417480469</ele>
        <time>2015-05-10T08:34:53Z</time>
      </trkpt>
      <trkpt lat="42.87744" lon="-0.39512">
        <ele>1257.5417480469</ele>
        <time>2015-05-10T08:35:18Z</time>
      </trkpt>
      <trkpt lat="42.87747" lon="-0.39514">
        <ele>1257.5417480469</ele>
        <time>2015-05-10T08:35:35Z</time>
      </trkpt>
      <trkpt lat="42.87759" lon="-0.39525">
        <ele>1258.5029296875</ele>
        <time>2015-05-10T08:35:50Z</time>
      </trkpt>
      <trkpt lat="42.87777" lon="-0.39536">
        <ele>1260.9064941406</ele>
        <time>2015-05-10T08:36:10Z</time>
      </trkpt>
      <trkpt lat="42.87793" lon="-0.39546">
        <ele>1264.2709960938</ele>
        <time>2015-05-10T08:36:28Z</time>
      </trkpt>
      <trkpt lat="42.87803" lon="-0.39551">
        <ele>1266.6743164062</ele>
        <time>2015-05-10T08:36:41Z</time>
      </trkpt>
      <trkpt lat="42.87812" lon="-0.39556">
        <ele>1267.6354980469</ele>
        <time>2015-05-10T08:36:56Z</time>
      </trkpt>
      <trkpt lat="42.87819" lon="-0.39559">
        <ele>1268.1162109375</ele>
        <time>2015-05-10T08:37:18Z</time>
      </trkpt>
      <trkpt lat="42.87827" lon="-0.39568">
        <ele>1268.1162109375</ele>
        <time>2015-05-10T08:37:30Z</time>
      </trkpt>
      <trkpt lat="42.8783" lon="-0.39576">
        <ele>1267.6354980469</ele>
        <time>2015-05-10T08:37:42Z</time>
      </trkpt>
      <trkpt lat="42.87831" lon="-0.39573">
        <ele>1268.1162109375</ele>
        <time>2015-05-10T08:37:45Z</time>
      </trkpt>
      <trkpt lat="42.87834" lon="-0.39569">
        <ele>1267.6354980469</ele>
        <time>2015-05-10T08:38:00Z</time>
      </trkpt>
      <trkpt lat="42.87833" lon="-0.39572">
        <ele>1267.6354980469</ele>
        <time>2015-05-10T08:38:07Z</time>
      </trkpt>
      <trkpt lat="42.87835" lon="-0.39578">
        <ele>1266.6743164062</ele>
        <time>2015-05-10T08:38:12Z</time>
      </trkpt>
      <trkpt lat="42.87852" lon="-0.39592">
        <ele>1265.7131347656</ele>
        <time>2015-05-10T08:38:31Z</time>
      </trkpt>
      <trkpt lat="42.87862" lon="-0.39591">
        <ele>1266.1936035156</ele>
        <time>2015-05-10T08:38:48Z</time>
      </trkpt>
      <trkpt lat="42.87858" lon="-0.39582">
        <ele>1268.5969238281</ele>
        <time>2015-05-10T08:39:01Z</time>
      </trkpt>
      <trkpt lat="42.87855" lon="-0.39578">
        <ele>1269.5583496094</ele>
        <time>2015-05-10T08:39:16Z</time>
      </trkpt>
      <trkpt lat="42.87855" lon="-0.39579">
        <ele>1270.0388183594</ele>
        <time>2015-05-10T08:39:37Z</time>
      </trkpt>
      <trkpt lat="42.87854" lon="-0.3958">
        <ele>1269.0776367188</ele>
        <time>2015-05-10T08:40:08Z</time>
      </trkpt>
      <trkpt lat="42.87854" lon="-0.39579">
        <ele>1269.0776367188</ele>
        <time>2015-05-10T08:40:51Z</time>
      </trkpt>
      <trkpt lat="42.87856" lon="-0.39583">
        <ele>1267.6354980469</ele>
        <time>2015-05-10T08:41:09Z</time>
      </trkpt>
      <trkpt lat="42.87865" lon="-0.39591">
        <ele>1266.6743164062</ele>
        <time>2015-05-10T08:41:24Z</time>
      </trkpt>
      <trkpt lat="42.87889" lon="-0.39591">
        <ele>1266.6743164062</ele>
        <time>2015-05-10T08:41:44Z</time>
      </trkpt>
      <trkpt lat="42.879" lon="-0.39588">
        <ele>1268.5969238281</ele>
        <time>2015-05-10T08:41:55Z</time>
      </trkpt>
      <trkpt lat="42.87907" lon="-0.39585">
        <ele>1269.0776367188</ele>
        <time>2015-05-10T08:42:01Z</time>
      </trkpt>
      <trkpt lat="42.87923" lon="-0.39582">
        <ele>1270.0388183594</ele>
        <time>2015-05-10T08:42:17Z</time>
      </trkpt>
      <trkpt lat="42.87937" lon="-0.39577">
        <ele>1272.9228515625</ele>
        <time>2015-05-10T08:42:30Z</time>
      </trkpt>
      <trkpt lat="42.87948" lon="-0.3958">
        <ele>1273.4035644531</ele>
        <time>2015-05-10T08:42:42Z</time>
      </trkpt>
      <trkpt lat="42.87951" lon="-0.39579">
        <ele>1273.8840332031</ele>
        <time>2015-05-10T08:42:45Z</time>
      </trkpt>
      <trkpt lat="42.87957" lon="-0.39583">
        <ele>1274.3647460938</ele>
        <time>2015-05-10T08:42:51Z</time>
      </trkpt>
      <trkpt lat="42.87975" lon="-0.39592">
        <ele>1277.2490234375</ele>
        <time>2015-05-10T08:43:09Z</time>
      </trkpt>
      <trkpt lat="42.87995" lon="-0.39596">
        <ele>1280.6135253906</ele>
        <time>2015-05-10T08:43:27Z</time>
      </trkpt>
      <trkpt lat="42.88015" lon="-0.39603">
        <ele>1283.0166015625</ele>
        <time>2015-05-10T08:43:46Z</time>
      </trkpt>
      <trkpt lat="42.88028" lon="-0.39613">
        <ele>1285.9006347656</ele>
        <time>2015-05-10T08:44:01Z</time>
      </trkpt>
      <trkpt lat="42.88041" lon="-0.39634">
        <ele>1287.3425292969</ele>
        <time>2015-05-10T08:44:19Z</time>
      </trkpt>
      <trkpt lat="42.8805" lon="-0.39659">
        <ele>1288.3039550781</ele>
        <time>2015-05-10T08:44:37Z</time>
      </trkpt>
      <trkpt lat="42.88059" lon="-0.39694">
        <ele>1288.3039550781</ele>
        <time>2015-05-10T08:45:01Z</time>
      </trkpt>
      <trkpt lat="42.88072" lon="-0.39727">
        <ele>1286.8618164062</ele>
        <time>2015-05-10T08:45:24Z</time>
      </trkpt>
      <trkpt lat="42.88088" lon="-0.39757">
        <ele>1285.419921875</ele>
        <time>2015-05-10T08:45:47Z</time>
      </trkpt>
      <trkpt lat="42.8811" lon="-0.39771">
        <ele>1283.9780273438</ele>
        <time>2015-05-10T08:46:08Z</time>
      </trkpt>
      <trkpt lat="42.88136" lon="-0.39781">
        <ele>1284.4587402344</ele>
        <time>2015-05-10T08:46:30Z</time>
      </trkpt>
      <trkpt lat="42.88152" lon="-0.398">
        <ele>1282.5361328125</ele>
        <time>2015-05-10T08:46:48Z</time>
      </trkpt>
      <trkpt lat="42.8816" lon="-0.39811">
        <ele>1282.0554199219</ele>
        <time>2015-05-10T08:47:03Z</time>
      </trkpt>
      <trkpt lat="42.88163" lon="-0.39815">
        <ele>1282.0554199219</ele>
        <time>2015-05-10T08:47:10Z</time>
      </trkpt>
      <trkpt lat="42.88173" lon="-0.39817">
        <ele>1283.0166015625</ele>
        <time>2015-05-10T08:47:26Z</time>
      </trkpt>
      <trkpt lat="42.88178" lon="-0.39819">
        <ele>1283.0166015625</ele>
        <time>2015-05-10T08:47:42Z</time>
      </trkpt>
      <trkpt lat="42.88181" lon="-0.39818">
        <ele>1282.5361328125</ele>
        <time>2015-05-10T08:47:49Z</time>
      </trkpt>
      <trkpt lat="42.882" lon="-0.39816">
        <ele>1283.9780273438</ele>
        <time>2015-05-10T08:48:08Z</time>
      </trkpt>
      <trkpt lat="42.88209" lon="-0.39817">
        <ele>1284.939453125</ele>
        <time>2015-05-10T08:48:21Z</time>
      </trkpt>
      <trkpt lat="42.88212" lon="-0.39816">
        <ele>1284.4587402344</ele>
        <time>2015-05-10T08:48:24Z</time>
      </trkpt>
      <trkpt lat="42.88216" lon="-0.39817">
        <ele>1283.9780273438</ele>
        <time>2015-05-10T08:48:28Z</time>
      </trkpt>
      <trkpt lat="42.8824" lon="-0.39814">
        <ele>1284.4587402344</ele>
        <time>2015-05-10T08:48:49Z</time>
      </trkpt>
      <trkpt lat="42.88266" lon="-0.39816">
        <ele>1286.3813476562</ele>
        <time>2015-05-10T08:49:10Z</time>
      </trkpt>
      <trkpt lat="42.88292" lon="-0.39806">
        <ele>1285.9006347656</ele>
        <time>2015-05-10T08:49:32Z</time>
      </trkpt>
      <trkpt lat="42.88315" lon="-0.3981">
        <ele>1286.3813476562</ele>
        <time>2015-05-10T08:49:53Z</time>
      </trkpt>
      <trkpt lat="42.88336" lon="-0.39827">
        <ele>1286.8618164062</ele>
        <time>2015-05-10T08:50:13Z</time>
      </trkpt>
      <trkpt lat="42.88356" lon="-0.39846">
        <ele>1287.3425292969</ele>
        <time>2015-05-10T08:50:33Z</time>
      </trkpt>
      <trkpt lat="42.88382" lon="-0.39861">
        <ele>1286.3813476562</ele>
        <time>2015-05-10T08:50:58Z</time>
      </trkpt>
      <trkpt lat="42.88386" lon="-0.3986">
        <ele>1286.3813476562</ele>
        <time>2015-05-10T08:51:19Z</time>
      </trkpt>
      <trkpt lat="42.88408" lon="-0.39858">
        <ele>1285.419921875</ele>
        <time>2015-05-10T08:51:38Z</time>
      </trkpt>
      <trkpt lat="42.88421" lon="-0.39864">
        <ele>1285.9006347656</ele>
        <time>2015-05-10T08:51:51Z</time>
      </trkpt>
      <trkpt lat="42.88422" lon="-0.39866">
        <ele>1285.419921875</ele>
        <time>2015-05-10T08:51:53Z</time>
      </trkpt>
      <trkpt lat="42.8842" lon="-0.3988">
        <ele>1284.939453125</ele>
        <time>2015-05-10T08:52:08Z</time>
      </trkpt>
      <trkpt lat="42.88424" lon="-0.39902">
        <ele>1286.3813476562</ele>
        <time>2015-05-10T08:52:24Z</time>
      </trkpt>
      <trkpt lat="42.88427" lon="-0.3991">
        <ele>1287.8232421875</ele>
        <time>2015-05-10T08:52:31Z</time>
      </trkpt>
      <trkpt lat="42.88438" lon="-0.39921">
        <ele>1290.2265625</ele>
        <time>2015-05-10T08:52:47Z</time>
      </trkpt>
      <trkpt lat="42.88449" lon="-0.39918">
        <ele>1291.1877441406</ele>
        <time>2015-05-10T08:53:01Z</time>
      </trkpt>
      <trkpt lat="42.88451" lon="-0.39915">
        <ele>1292.1494140625</ele>
        <time>2015-05-10T08:53:04Z</time>
      </trkpt>
      <trkpt lat="42.88456" lon="-0.39907">
        <ele>1293.5913085938</ele>
        <time>2015-05-10T08:53:12Z</time>
      </trkpt>
      <trkpt lat="42.88469" lon="-0.39895">
        <ele>1294.0720214844</ele>
        <time>2015-05-10T08:53:28Z</time>
      </trkpt>
      <trkpt lat="42.88484" lon="-0.39892">
        <ele>1296.9558105469</ele>
        <time>2015-05-10T08:53:43Z</time>
      </trkpt>
      <trkpt lat="42.88489" lon="-0.3989">
        <ele>1297.4365234375</ele>
        <time>2015-05-10T08:53:48Z</time>
      </trkpt>
      <trkpt lat="42.88507" lon="-0.39895">
        <ele>1298.3977050781</ele>
        <time>2015-05-10T08:54:05Z</time>
      </trkpt>
      <trkpt lat="42.88511" lon="-0.39909">
        <ele>1297.9172363281</ele>
        <time>2015-05-10T08:54:22Z</time>
      </trkpt>
      <trkpt lat="42.88511" lon="-0.3991">
        <ele>1297.9172363281</ele>
        <time>2015-05-10T08:54:23Z</time>
      </trkpt>
      <trkpt lat="42.88508" lon="-0.39915">
        <ele>1297.9172363281</ele>
        <time>2015-05-10T08:54:29Z</time>
      </trkpt>
      <trkpt lat="42.88508" lon="-0.39916">
        <ele>1297.4365234375</ele>
        <time>2015-05-10T08:54:50Z</time>
      </trkpt>
      <trkpt lat="42.88512" lon="-0.39914">
        <ele>1298.8784179688</ele>
        <time>2015-05-10T08:55:06Z</time>
      </trkpt>
      <trkpt lat="42.88512" lon="-0.39905">
        <ele>1299.3591308594</ele>
        <time>2015-05-10T08:55:18Z</time>
      </trkpt>
      <trkpt lat="42.88512" lon="-0.399">
        <ele>1298.3977050781</ele>
        <time>2015-05-10T08:55:33Z</time>
      </trkpt>
      <trkpt lat="42.88509" lon="-0.39909">
        <ele>1298.3977050781</ele>
        <time>2015-05-10T08:55:50Z</time>
      </trkpt>
      <trkpt lat="42.88508" lon="-0.39914">
        <ele>1298.3977050781</ele>
        <time>2015-05-10T08:56:06Z</time>
      </trkpt>
      <trkpt lat="42.88516" lon="-0.39908">
        <ele>1298.8784179688</ele>
        <time>2015-05-10T08:56:23Z</time>
      </trkpt>
      <trkpt lat="42.88511" lon="-0.399">
        <ele>1299.83984375</ele>
        <time>2015-05-10T08:56:46Z</time>
      </trkpt>
      <trkpt lat="42.8851" lon="-0.39898">
        <ele>1295.033203125</ele>
        <time>2015-05-10T08:56:50Z</time>
      </trkpt>
      <trkpt lat="42.8851" lon="-0.39898">
        <ele>1302.7236328125</ele>
        <time>2015-05-10T08:56:51Z</time>
      </trkpt>
      <trkpt lat="42.88509" lon="-0.39898">
        <ele>1299.3591308594</ele>
        <time>2015-05-10T08:56:52Z</time>
      </trkpt>
      <trkpt lat="42.88509" lon="-0.39898">
        <ele>1298.3977050781</ele>
        <time>2015-05-10T08:56:54Z</time>
      </trkpt>
      <trkpt lat="42.88508" lon="-0.39898">
        <ele>1299.3591308594</ele>
        <time>2015-05-10T08:56:58Z</time>
      </trkpt>
      <trkpt lat="42.88506" lon="-0.39903">
        <ele>1298.8784179688</ele>
        <time>2015-05-10T08:57:04Z</time>
      </trkpt>
      <trkpt lat="42.88502" lon="-0.3993">
        <ele>1297.4365234375</ele>
        <time>2015-05-10T08:57:20Z</time>
      </trkpt>
      <trkpt lat="42.885" lon="-0.39939">
        <ele>1297.4365234375</ele>
        <time>2015-05-10T08:57:29Z</time>
      </trkpt>
      <trkpt lat="42.88487" lon="-0.39962">
        <ele>1296.4753417969</ele>
        <time>2015-05-10T08:57:48Z</time>
      </trkpt>
      <trkpt lat="42.88471" lon="-0.39984">
        <ele>1296.4753417969</ele>
        <time>2015-05-10T08:58:07Z</time>
      </trkpt>
      <trkpt lat="42.88464" lon="-0.39995">
        <ele>1295.5139160156</ele>
        <time>2015-05-10T08:58:18Z</time>
      </trkpt>
      <trkpt lat="42.88458" lon="-0.40022">
        <ele>1295.9946289062</ele>
        <time>2015-05-10T08:58:37Z</time>
      </trkpt>
      <trkpt lat="42.88456" lon="-0.40028">
        <ele>1295.033203125</ele>
        <time>2015-05-10T08:58:50Z</time>
      </trkpt>
      <trkpt lat="42.88455" lon="-0.40027">
        <ele>1295.9946289062</ele>
        <time>2015-05-10T09:00:30Z</time>
      </trkpt>
      <trkpt lat="42.88453" lon="-0.40026">
        <ele>1294.5524902344</ele>
        <time>2015-05-10T09:01:53Z</time>
      </trkpt>
      <trkpt lat="42.88457" lon="-0.40023">
        <ele>1294.0720214844</ele>
        <time>2015-05-10T09:02:31Z</time>
      </trkpt>
      <trkpt lat="42.88456" lon="-0.40026">
        <ele>1294.5524902344</ele>
        <time>2015-05-10T09:04:32Z</time>
      </trkpt>
      <trkpt lat="42.88456" lon="-0.40025">
        <ele>1294.0720214844</ele>
        <time>2015-05-10T09:05:09Z</time>
      </trkpt>
      <trkpt lat="42.88457" lon="-0.40029">
        <ele>1294.5524902344</ele>
        <time>2015-05-10T09:05:22Z</time>
      </trkpt>
      <trkpt lat="42.88458" lon="-0.40043">
        <ele>1294.0720214844</ele>
        <time>2015-05-10T09:05:36Z</time>
      </trkpt>
      <trkpt lat="42.88456" lon="-0.40059">
        <ele>1293.5913085938</ele>
        <time>2015-05-10T09:05:53Z</time>
      </trkpt>
      <trkpt lat="42.88457" lon="-0.40056">
        <ele>1293.5913085938</ele>
        <time>2015-05-10T09:06:14Z</time>
      </trkpt>
      <trkpt lat="42.88462" lon="-0.40052">
        <ele>1293.5913085938</ele>
        <time>2015-05-10T09:06:30Z</time>
      </trkpt>
      <trkpt lat="42.88462" lon="-0.40053">
        <ele>1293.1105957031</ele>
        <time>2015-05-10T09:06:55Z</time>
      </trkpt>
      <trkpt lat="42.88462" lon="-0.40053">
        <ele>1294.5524902344</ele>
        <time>2015-05-10T09:07:09Z</time>
      </trkpt>
      <trkpt lat="42.88462" lon="-0.40053">
        <ele>1292.6301269531</ele>
        <time>2015-05-10T09:07:33Z</time>
      </trkpt>
      <trkpt lat="42.88462" lon="-0.40053">
        <ele>1294.0720214844</ele>
        <time>2015-05-10T09:09:04Z</time>
      </trkpt>
      <trkpt lat="42.88462" lon="-0.40052">
        <ele>1294.5524902344</ele>
        <time>2015-05-10T09:09:12Z</time>
      </trkpt>
      <trkpt lat="42.8846" lon="-0.40046">
        <ele>1295.5139160156</ele>
        <time>2015-05-10T09:09:23Z</time>
      </trkpt>
      <trkpt lat="42.88464" lon="-0.40055">
        <ele>1294.5524902344</ele>
        <time>2015-05-10T09:09:39Z</time>
      </trkpt>
      <trkpt lat="42.88465" lon="-0.40056">
        <ele>1292.6301269531</ele>
        <time>2015-05-10T09:09:57Z</time>
      </trkpt>
      <trkpt lat="42.88466" lon="-0.40058">
        <ele>1292.6301269531</ele>
        <time>2015-05-10T09:10:22Z</time>
      </trkpt>
      <trkpt lat="42.88466" lon="-0.40061">
        <ele>1292.1494140625</ele>
        <time>2015-05-10T09:10:44Z</time>
      </trkpt>
      <trkpt lat="42.8847" lon="-0.40063">
        <ele>1290.70703125</ele>
        <time>2015-05-10T09:10:53Z</time>
      </trkpt>
      <trkpt lat="42.88471" lon="-0.40068">
        <ele>1288.3039550781</ele>
        <time>2015-05-10T09:11:05Z</time>
      </trkpt>
      <trkpt lat="42.88473" lon="-0.40075">
        <ele>1284.4587402344</ele>
        <time>2015-05-10T09:11:13Z</time>
      </trkpt>
      <trkpt lat="42.88472" lon="-0.40082">
        <ele>1282.5361328125</ele>
        <time>2015-05-10T09:11:25Z</time>
      </trkpt>
      <trkpt lat="42.88472" lon="-0.40088">
        <ele>1281.0942382812</ele>
        <time>2015-05-10T09:11:39Z</time>
      </trkpt>
      <trkpt lat="42.88473" lon="-0.40097">
        <ele>1278.2102050781</ele>
        <time>2015-05-10T09:11:49Z</time>
      </trkpt>
      <trkpt lat="42.88477" lon="-0.40107">
        <ele>1275.806640625</ele>
        <time>2015-05-10T09:12:02Z</time>
      </trkpt>
      <trkpt lat="42.88475" lon="-0.40113">
        <ele>1272.9228515625</ele>
        <time>2015-05-10T09:12:16Z</time>
      </trkpt>
      <trkpt lat="42.8848" lon="-0.40126">
        <ele>1271.4807128906</ele>
        <time>2015-05-10T09:12:30Z</time>
      </trkpt>
      <trkpt lat="42.88482" lon="-0.40135">
        <ele>1268.5969238281</ele>
        <time>2015-05-10T09:12:44Z</time>
      </trkpt>
      <trkpt lat="42.88475" lon="-0.40134">
        <ele>1267.6354980469</ele>
        <time>2015-05-10T09:12:57Z</time>
      </trkpt>
      <trkpt lat="42.8847" lon="-0.40135">
        <ele>1265.7131347656</ele>
        <time>2015-05-10T09:13:08Z</time>
      </trkpt>
      <trkpt lat="42.88464" lon="-0.40131">
        <ele>1264.2709960938</ele>
        <time>2015-05-10T09:13:24Z</time>
      </trkpt>
      <trkpt lat="42.88466" lon="-0.40126">
        <ele>1265.7131347656</ele>
        <time>2015-05-10T09:13:52Z</time>
      </trkpt>
      <trkpt lat="42.88473" lon="-0.40126">
        <ele>1266.1936035156</ele>
        <time>2015-05-10T09:15:08Z</time>
      </trkpt>
      <trkpt lat="42.88475" lon="-0.40124">
        <ele>1265.232421875</ele>
        <time>2015-05-10T09:16:01Z</time>
      </trkpt>
      <trkpt lat="42.88466" lon="-0.40125">
        <ele>1263.7902832031</ele>
        <time>2015-05-10T09:16:20Z</time>
      </trkpt>
      <trkpt lat="42.88457" lon="-0.40131">
        <ele>1260.42578125</ele>
        <time>2015-05-10T09:16:33Z</time>
      </trkpt>
      <trkpt lat="42.88451" lon="-0.4014">
        <ele>1257.0610351562</ele>
        <time>2015-05-10T09:16:46Z</time>
      </trkpt>
      <trkpt lat="42.88446" lon="-0.40143">
        <ele>1254.1772460938</ele>
        <time>2015-05-10T09:16:54Z</time>
      </trkpt>
      <trkpt lat="42.88447" lon="-0.40147">
        <ele>1251.2932128906</ele>
        <time>2015-05-10T09:17:02Z</time>
      </trkpt>
      <trkpt lat="42.8845" lon="-0.40155">
        <ele>1247.9287109375</ele>
        <time>2015-05-10T09:17:13Z</time>
      </trkpt>
      <trkpt lat="42.88446" lon="-0.40164">
        <ele>1245.0446777344</ele>
        <time>2015-05-10T09:17:28Z</time>
      </trkpt>
      <trkpt lat="42.88447" lon="-0.40175">
        <ele>1242.1606445312</ele>
        <time>2015-05-10T09:17:41Z</time>
      </trkpt>
      <trkpt lat="42.88446" lon="-0.40184">
        <ele>1240.2380371094</ele>
        <time>2015-05-10T09:17:51Z</time>
      </trkpt>
      <trkpt lat="42.88441" lon="-0.40191">
        <ele>1237.3540039062</ele>
        <time>2015-05-10T09:18:03Z</time>
      </trkpt>
      <trkpt lat="42.8844" lon="-0.40192">
        <ele>1236.3928222656</ele>
        <time>2015-05-10T09:18:05Z</time>
      </trkpt>
      <trkpt lat="42.88434" lon="-0.40206">
        <ele>1233.5087890625</ele>
        <time>2015-05-10T09:18:20Z</time>
      </trkpt>
      <trkpt lat="42.88433" lon="-0.40223">
        <ele>1232.0668945312</ele>
        <time>2015-05-10T09:18:50Z</time>
      </trkpt>
      <trkpt lat="42.88436" lon="-0.40222">
        <ele>1230.1442871094</ele>
        <time>2015-05-10T09:19:04Z</time>
      </trkpt>
      <trkpt lat="42.88441" lon="-0.40225">
        <ele>1228.2216796875</ele>
        <time>2015-05-10T09:19:20Z</time>
      </trkpt>
      <trkpt lat="42.88444" lon="-0.40229">
        <ele>1226.7795410156</ele>
        <time>2015-05-10T09:19:33Z</time>
      </trkpt>
      <trkpt lat="42.88445" lon="-0.4023">
        <ele>1226.7795410156</ele>
        <time>2015-05-10T09:19:55Z</time>
      </trkpt>
      <trkpt lat="42.88447" lon="-0.40231">
        <ele>1227.7407226562</ele>
        <time>2015-05-10T09:20:21Z</time>
      </trkpt>
      <trkpt lat="42.88449" lon="-0.40238">
        <ele>1227.7407226562</ele>
        <time>2015-05-10T09:20:58Z</time>
      </trkpt>
      <trkpt lat="42.88448" lon="-0.40231">
        <ele>1228.2216796875</ele>
        <time>2015-05-10T09:21:18Z</time>
      </trkpt>
      <trkpt lat="42.88452" lon="-0.40228">
        <ele>1229.1828613281</ele>
        <time>2015-05-10T09:21:46Z</time>
      </trkpt>
      <trkpt lat="42.88452" lon="-0.40232">
        <ele>1225.8181152344</ele>
        <time>2015-05-10T09:22:00Z</time>
      </trkpt>
      <trkpt lat="42.88451" lon="-0.40242">
        <ele>1223.4150390625</ele>
        <time>2015-05-10T09:22:11Z</time>
      </trkpt>
      <trkpt lat="42.8845" lon="-0.40248">
        <ele>1220.5310058594</ele>
        <time>2015-05-10T09:22:28Z</time>
      </trkpt>
      <trkpt lat="42.88449" lon="-0.40247">
        <ele>1220.5310058594</ele>
        <time>2015-05-10T09:22:39Z</time>
      </trkpt>
      <trkpt lat="42.88444" lon="-0.40241">
        <ele>1220.5310058594</ele>
        <time>2015-05-10T09:23:01Z</time>
      </trkpt>
      <trkpt lat="42.88443" lon="-0.4025">
        <ele>1219.5698242188</ele>
        <time>2015-05-10T09:23:31Z</time>
      </trkpt>
      <trkpt lat="42.88443" lon="-0.40252">
        <ele>1219.0891113281</ele>
        <time>2015-05-10T09:23:49Z</time>
      </trkpt>
      <trkpt lat="42.88443" lon="-0.40251">
        <ele>1218.6083984375</ele>
        <time>2015-05-10T09:24:11Z</time>
      </trkpt>
      <trkpt lat="42.88445" lon="-0.4025">
        <ele>1219.0891113281</ele>
        <time>2015-05-10T09:24:28Z</time>
      </trkpt>
      <trkpt lat="42.88447" lon="-0.4025">
        <ele>1218.6083984375</ele>
        <time>2015-05-10T09:24:52Z</time>
      </trkpt>
      <trkpt lat="42.88449" lon="-0.40253">
        <ele>1217.6469726562</ele>
        <time>2015-05-10T09:25:25Z</time>
      </trkpt>
      <trkpt lat="42.88446" lon="-0.4025">
        <ele>1218.6083984375</ele>
        <time>2015-05-10T09:25:50Z</time>
      </trkpt>
      <trkpt lat="42.88446" lon="-0.40253">
        <ele>1216.6857910156</ele>
        <time>2015-05-10T09:26:06Z</time>
      </trkpt>
      <trkpt lat="42.88447" lon="-0.40266">
        <ele>1214.2824707031</ele>
        <time>2015-05-10T09:26:18Z</time>
      </trkpt>
      <trkpt lat="42.88441" lon="-0.40274">
        <ele>1212.8405761719</ele>
        <time>2015-05-10T09:26:30Z</time>
      </trkpt>
      <trkpt lat="42.88436" lon="-0.40277">
        <ele>1210.4370117188</ele>
        <time>2015-05-10T09:26:39Z</time>
      </trkpt>
      <trkpt lat="42.88431" lon="-0.4028">
        <ele>1208.9951171875</ele>
        <time>2015-05-10T09:26:48Z</time>
      </trkpt>
      <trkpt lat="42.88428" lon="-0.40287">
        <ele>1205.6306152344</ele>
        <time>2015-05-10T09:27:00Z</time>
      </trkpt>
      <trkpt lat="42.88432" lon="-0.40292">
        <ele>1204.1887207031</ele>
        <time>2015-05-10T09:27:12Z</time>
      </trkpt>
      <trkpt lat="42.88434" lon="-0.40293">
        <ele>1204.1887207031</ele>
        <time>2015-05-10T09:27:30Z</time>
      </trkpt>
      <trkpt lat="42.88434" lon="-0.40289">
        <ele>1204.1887207031</ele>
        <time>2015-05-10T09:27:59Z</time>
      </trkpt>
      <trkpt lat="42.88432" lon="-0.40289">
        <ele>1203.7080078125</ele>
        <time>2015-05-10T09:28:17Z</time>
      </trkpt>
      <trkpt lat="42.88434" lon="-0.40293">
        <ele>1204.1887207031</ele>
        <time>2015-05-10T09:28:32Z</time>
      </trkpt>
      <trkpt lat="42.88435" lon="-0.40297">
        <ele>1204.1887207031</ele>
        <time>2015-05-10T09:28:50Z</time>
      </trkpt>
      <trkpt lat="42.88436" lon="-0.40297">
        <ele>1204.1887207031</ele>
        <time>2015-05-10T09:29:10Z</time>
      </trkpt>
      <trkpt lat="42.88437" lon="-0.40298">
        <ele>1204.1887207031</ele>
        <time>2015-05-10T09:29:26Z</time>
      </trkpt>
      <trkpt lat="42.88441" lon="-0.40303">
        <ele>1202.2658691406</ele>
        <time>2015-05-10T09:29:37Z</time>
      </trkpt>
      <trkpt lat="42.88443" lon="-0.40305">
        <ele>1202.7465820312</ele>
        <time>2015-05-10T09:29:39Z</time>
      </trkpt>
      <trkpt lat="42.88449" lon="-0.40317">
        <ele>1200.3435058594</ele>
        <time>2015-05-10T09:29:52Z</time>
      </trkpt>
      <trkpt lat="42.88454" lon="-0.4033">
        <ele>1199.8627929688</ele>
        <time>2015-05-10T09:30:06Z</time>
      </trkpt>
      <trkpt lat="42.88455" lon="-0.40333">
        <ele>1198.9013671875</ele>
        <time>2015-05-10T09:30:28Z</time>
      </trkpt>
      <trkpt lat="42.88457" lon="-0.40336">
        <ele>1198.4206542969</ele>
        <time>2015-05-10T09:30:47Z</time>
      </trkpt>
      <trkpt lat="42.88463" lon="-0.40344">
        <ele>1196.9787597656</ele>
        <time>2015-05-10T09:31:01Z</time>
      </trkpt>
      <trkpt lat="42.88467" lon="-0.4035">
        <ele>1196.4982910156</ele>
        <time>2015-05-10T09:31:10Z</time>
      </trkpt>
      <trkpt lat="42.88469" lon="-0.40351">
        <ele>1195.0559082031</ele>
        <time>2015-05-10T09:31:19Z</time>
      </trkpt>
      <trkpt lat="42.88469" lon="-0.40363">
        <ele>1196.017578125</ele>
        <time>2015-05-10T09:31:36Z</time>
      </trkpt>
      <trkpt lat="42.88471" lon="-0.40361">
        <ele>1195.5366210938</ele>
        <time>2015-05-10T09:31:56Z</time>
      </trkpt>
      <trkpt lat="42.8847" lon="-0.40368">
        <ele>1194.5751953125</ele>
        <time>2015-05-10T09:32:18Z</time>
      </trkpt>
      <trkpt lat="42.88466" lon="-0.40377">
        <ele>1195.0559082031</ele>
        <time>2015-05-10T09:32:33Z</time>
      </trkpt>
      <trkpt lat="42.88466" lon="-0.40393">
        <ele>1195.0559082031</ele>
        <time>2015-05-10T09:32:50Z</time>
      </trkpt>
      <trkpt lat="42.88467" lon="-0.40393">
        <ele>1194.5751953125</ele>
        <time>2015-05-10T09:33:04Z</time>
      </trkpt>
      <trkpt lat="42.88466" lon="-0.40394">
        <ele>1194.5751953125</ele>
        <time>2015-05-10T09:33:15Z</time>
      </trkpt>
      <trkpt lat="42.88466" lon="-0.40393">
        <ele>1194.5751953125</ele>
        <time>2015-05-10T09:33:18Z</time>
      </trkpt>
      <trkpt lat="42.88467" lon="-0.40393">
        <ele>1194.0947265625</ele>
        <time>2015-05-10T09:33:30Z</time>
      </trkpt>
      <trkpt lat="42.88466" lon="-0.40391">
        <ele>1194.0947265625</ele>
        <time>2015-05-10T09:33:59Z</time>
      </trkpt>
      <trkpt lat="42.88465" lon="-0.40391">
        <ele>1194.0947265625</ele>
        <time>2015-05-10T09:34:11Z</time>
      </trkpt>
      <trkpt lat="42.88466" lon="-0.40395">
        <ele>1194.5751953125</ele>
        <time>2015-05-10T09:34:24Z</time>
      </trkpt>
      <trkpt lat="42.88468" lon="-0.40406">
        <ele>1196.017578125</ele>
        <time>2015-05-10T09:34:40Z</time>
      </trkpt>
      <trkpt lat="42.88469" lon="-0.40405">
        <ele>1195.5366210938</ele>
        <time>2015-05-10T09:34:58Z</time>
      </trkpt>
      <trkpt lat="42.88466" lon="-0.4041">
        <ele>1196.4982910156</ele>
        <time>2015-05-10T09:35:11Z</time>
      </trkpt>
      <trkpt lat="42.88467" lon="-0.40404">
        <ele>1194.5751953125</ele>
        <time>2015-05-10T09:35:27Z</time>
      </trkpt>
      <trkpt lat="42.88467" lon="-0.40398">
        <ele>1194.5751953125</ele>
        <time>2015-05-10T09:35:34Z</time>
      </trkpt>
      <trkpt lat="42.88467" lon="-0.40395">
        <ele>1193.6140136719</ele>
        <time>2015-05-10T09:35:48Z</time>
      </trkpt>
      <trkpt lat="42.88466" lon="-0.40395">
        <ele>1195.0559082031</ele>
        <time>2015-05-10T09:36:02Z</time>
      </trkpt>
      <trkpt lat="42.88467" lon="-0.40406">
        <ele>1195.0559082031</ele>
        <time>2015-05-10T09:36:14Z</time>
      </trkpt>
      <trkpt lat="42.88465" lon="-0.4041">
        <ele>1195.5366210938</ele>
        <time>2015-05-10T09:36:28Z</time>
      </trkpt>
      <trkpt lat="42.88463" lon="-0.40413">
        <ele>1195.5366210938</ele>
        <time>2015-05-10T09:36:39Z</time>
      </trkpt>
      <trkpt lat="42.8847" lon="-0.40427">
        <ele>1195.0559082031</ele>
        <time>2015-05-10T09:36:52Z</time>
      </trkpt>
      <trkpt lat="42.88481" lon="-0.40447">
        <ele>1193.1333007812</ele>
        <time>2015-05-10T09:37:12Z</time>
      </trkpt>
      <trkpt lat="42.88482" lon="-0.40454">
        <ele>1193.1333007812</ele>
        <time>2015-05-10T09:37:19Z</time>
      </trkpt>
      <trkpt lat="42.88487" lon="-0.40485">
        <ele>1190.7299804688</ele>
        <time>2015-05-10T09:37:40Z</time>
      </trkpt>
      <trkpt lat="42.88486" lon="-0.4051">
        <ele>1189.7687988281</ele>
        <time>2015-05-10T09:38:00Z</time>
      </trkpt>
      <trkpt lat="42.88485" lon="-0.40525">
        <ele>1188.8076171875</ele>
        <time>2015-05-10T09:38:13Z</time>
      </trkpt>
      <trkpt lat="42.8848" lon="-0.40559">
        <ele>1186.404296875</ele>
        <time>2015-05-10T09:38:35Z</time>
      </trkpt>
      <trkpt lat="42.88479" lon="-0.4057">
        <ele>1185.9235839844</ele>
        <time>2015-05-10T09:38:42Z</time>
      </trkpt>
      <trkpt lat="42.88478" lon="-0.40603">
        <ele>1184.0009765625</ele>
        <time>2015-05-10T09:39:03Z</time>
      </trkpt>
      <trkpt lat="42.88485" lon="-0.40634">
        <ele>1183.0395507812</ele>
        <time>2015-05-10T09:39:23Z</time>
      </trkpt>
      <trkpt lat="42.88488" lon="-0.40641">
        <ele>1182.0783691406</ele>
        <time>2015-05-10T09:39:28Z</time>
      </trkpt>
      <trkpt lat="42.88499" lon="-0.40665">
        <ele>1182.0783691406</ele>
        <time>2015-05-10T09:39:45Z</time>
      </trkpt>
      <trkpt lat="42.88504" lon="-0.40675">
        <ele>1181.59765625</ele>
        <time>2015-05-10T09:39:52Z</time>
      </trkpt>
      <trkpt lat="42.88516" lon="-0.40697">
        <ele>1181.59765625</ele>
        <time>2015-05-10T09:40:07Z</time>
      </trkpt>
      <trkpt lat="42.88522" lon="-0.40703">
        <ele>1181.1171875</ele>
        <time>2015-05-10T09:40:12Z</time>
      </trkpt>
      <trkpt lat="42.88548" lon="-0.40727">
        <ele>1180.1557617188</ele>
        <time>2015-05-10T09:40:30Z</time>
      </trkpt>
      <trkpt lat="42.88566" lon="-0.4075">
        <ele>1179.1940917969</ele>
        <time>2015-05-10T09:40:47Z</time>
      </trkpt>
      <trkpt lat="42.88568" lon="-0.40752">
        <ele>1178.7136230469</ele>
        <time>2015-05-10T09:40:49Z</time>
      </trkpt>
      <trkpt lat="42.88579" lon="-0.40773">
        <ele>1178.7136230469</ele>
        <time>2015-05-10T09:41:05Z</time>
      </trkpt>
      <trkpt lat="42.88575" lon="-0.40777">
        <ele>1178.7136230469</ele>
        <time>2015-05-10T09:41:07Z</time>
      </trkpt>
      <trkpt lat="42.88569" lon="-0.40804">
        <ele>1178.2329101562</ele>
        <time>2015-05-10T09:41:25Z</time>
      </trkpt>
      <trkpt lat="42.88565" lon="-0.40809">
        <ele>1177.7521972656</ele>
        <time>2015-05-10T09:41:29Z</time>
      </trkpt>
      <trkpt lat="42.88563" lon="-0.40822">
        <ele>1176.791015625</ele>
        <time>2015-05-10T09:41:37Z</time>
      </trkpt>
      <trkpt lat="42.88563" lon="-0.40825">
        <ele>1177.2717285156</ele>
        <time>2015-05-10T09:41:39Z</time>
      </trkpt>
      <trkpt lat="42.88569" lon="-0.40843">
        <ele>1175.3488769531</ele>
        <time>2015-05-10T09:41:51Z</time>
      </trkpt>
      <trkpt lat="42.88577" lon="-0.40863">
        <ele>1174.3876953125</ele>
        <time>2015-05-10T09:42:04Z</time>
      </trkpt>
      <trkpt lat="42.88576" lon="-0.40881">
        <ele>1172.9458007812</ele>
        <time>2015-05-10T09:42:20Z</time>
      </trkpt>
      <trkpt lat="42.88581" lon="-0.40897">
        <ele>1172.4650878906</ele>
        <time>2015-05-10T09:42:37Z</time>
      </trkpt>
      <trkpt lat="42.88586" lon="-0.40904">
        <ele>1171.5036621094</ele>
        <time>2015-05-10T09:42:44Z</time>
      </trkpt>
      <trkpt lat="42.88589" lon="-0.40909">
        <ele>1171.5036621094</ele>
        <time>2015-05-10T09:42:48Z</time>
      </trkpt>
      <trkpt lat="42.88602" lon="-0.40927">
        <ele>1170.5424804688</ele>
        <time>2015-05-10T09:43:04Z</time>
      </trkpt>
      <trkpt lat="42.8861" lon="-0.40936">
        <ele>1170.0617675781</ele>
        <time>2015-05-10T09:43:13Z</time>
      </trkpt>
      <trkpt lat="42.88619" lon="-0.40971">
        <ele>1167.1779785156</ele>
        <time>2015-05-10T09:43:36Z</time>
      </trkpt>
      <trkpt lat="42.88622" lon="-0.41001">
        <ele>1165.2553710938</ele>
        <time>2015-05-10T09:43:56Z</time>
      </trkpt>
      <trkpt lat="42.88614" lon="-0.41026">
        <ele>1164.2939453125</ele>
        <time>2015-05-10T09:44:14Z</time>
      </trkpt>
      <trkpt lat="42.88603" lon="-0.4103">
        <ele>1162.8518066406</ele>
        <time>2015-05-10T09:44:23Z</time>
      </trkpt>
      <trkpt lat="42.88605" lon="-0.41046">
        <ele>1160.4484863281</ele>
        <time>2015-05-10T09:44:40Z</time>
      </trkpt>
      <trkpt lat="42.88614" lon="-0.41057">
        <ele>1159.4873046875</ele>
        <time>2015-05-10T09:44:51Z</time>
      </trkpt>
      <trkpt lat="42.88623" lon="-0.41067">
        <ele>1157.5646972656</ele>
        <time>2015-05-10T09:45:07Z</time>
      </trkpt>
      <trkpt lat="42.88615" lon="-0.41128">
        <ele>1154.6806640625</ele>
        <time>2015-05-10T09:45:36Z</time>
      </trkpt>
    </trkseg>
  </trk>
  <trk>
    <name><![CDATA[ACTIVE LOG 012]]></name>
    <trkseg>
      <trkpt lat="42.88615" lon="-0.41134">
        <ele>1155.6420898438</ele>
        <time>2015-05-10T09:45:41Z</time>
      </trkpt>
      <trkpt lat="42.88615" lon="-0.41134">
        <ele>1152.27734375</ele>
        <time>2015-05-10T09:46:15Z</time>
      </trkpt>
    </trkseg>
  </trk>
  <trk>
    <name><![CDATA[ACTIVE LOG 013]]></name>
    <trkseg>
      <trkpt lat="42.88653" lon="-0.41225">
        <ele>1152.27734375</ele>
        <time>2015-05-10T09:46:38Z</time>
      </trkpt>
    </trkseg>
  </trk>
  <trk>
    <name><![CDATA[ACTIVE LOG 014]]></name>
    <trkseg>
      <trkpt lat="42.88656" lon="-0.4127">
        <ele>1150.8354492188</ele>
        <time>2015-05-10T09:47:09Z</time>
      </trkpt>
    </trkseg>
  </trk>
  <trk>
    <name><![CDATA[ACTIVE LOG 015]]></name>
    <trkseg>
      <trkpt lat="42.88685" lon="-0.41284">
        <ele>1150.3549804688</ele>
        <time>2015-05-10T09:47:21Z</time>
      </trkpt>
      <trkpt lat="42.88695" lon="-0.41315">
        <ele>1148.9128417969</ele>
        <time>2015-05-10T09:47:43Z</time>
      </trkpt>
      <trkpt lat="42.88702" lon="-0.41335">
        <ele>1148.4321289062</ele>
        <time>2015-05-10T09:47:56Z</time>
      </trkpt>
      <trkpt lat="42.88708" lon="-0.41351">
        <ele>1146.9899902344</ele>
        <time>2015-05-10T09:48:07Z</time>
      </trkpt>
      <trkpt lat="42.88713" lon="-0.41368">
        <ele>1145.5480957031</ele>
        <time>2015-05-10T09:48:18Z</time>
      </trkpt>
      <trkpt lat="42.88715" lon="-0.41374">
        <ele>1146.5095214844</ele>
        <time>2015-05-10T09:48:22Z</time>
      </trkpt>
      <trkpt lat="42.88723" lon="-0.41398">
        <ele>1144.1062011719</ele>
        <time>2015-05-10T09:48:38Z</time>
      </trkpt>
      <trkpt lat="42.8873" lon="-0.41414">
        <ele>1142.6643066406</ele>
        <time>2015-05-10T09:48:50Z</time>
      </trkpt>
      <trkpt lat="42.88736" lon="-0.41437">
        <ele>1141.7028808594</ele>
        <time>2015-05-10T09:49:06Z</time>
      </trkpt>
      <trkpt lat="42.88737" lon="-0.41438">
        <ele>1141.2221679688</ele>
        <time>2015-05-10T09:49:07Z</time>
      </trkpt>
      <trkpt lat="42.88743" lon="-0.41447">
        <ele>1141.2221679688</ele>
        <time>2015-05-10T09:49:23Z</time>
      </trkpt>
      <trkpt lat="42.8875" lon="-0.41444">
        <ele>1139.7802734375</ele>
        <time>2015-05-10T09:49:37Z</time>
      </trkpt>
      <trkpt lat="42.88768" lon="-0.41447">
        <ele>1140.2609863281</ele>
        <time>2015-05-10T09:50:00Z</time>
      </trkpt>
      <trkpt lat="42.88788" lon="-0.41442">
        <ele>1140.2609863281</ele>
        <time>2015-05-10T09:50:11Z</time>
      </trkpt>
      <trkpt lat="42.88782" lon="-0.41444">
        <ele>1141.7028808594</ele>
        <time>2015-05-10T09:50:28Z</time>
      </trkpt>
      <trkpt lat="42.88784" lon="-0.41443">
        <ele>1141.7028808594</ele>
        <time>2015-05-10T09:50:42Z</time>
      </trkpt>
      <trkpt lat="42.888" lon="-0.41445">
        <ele>1142.18359375</ele>
        <time>2015-05-10T09:51:01Z</time>
      </trkpt>
      <trkpt lat="42.88829" lon="-0.41467">
        <ele>1142.6643066406</ele>
        <time>2015-05-10T09:51:24Z</time>
      </trkpt>
      <trkpt lat="42.88831" lon="-0.41471">
        <ele>1141.7028808594</ele>
        <time>2015-05-10T09:51:27Z</time>
      </trkpt>
      <trkpt lat="42.88845" lon="-0.41485">
        <ele>1141.2221679688</ele>
        <time>2015-05-10T09:51:38Z</time>
      </trkpt>
      <trkpt lat="42.88857" lon="-0.41496">
        <ele>1140.7414550781</ele>
        <time>2015-05-10T09:51:50Z</time>
      </trkpt>
      <trkpt lat="42.88857" lon="-0.41526">
        <ele>1140.7414550781</ele>
        <time>2015-05-10T09:52:13Z</time>
      </trkpt>
      <trkpt lat="42.88868" lon="-0.41538">
        <ele>1141.2221679688</ele>
        <time>2015-05-10T09:52:24Z</time>
      </trkpt>
      <trkpt lat="42.88875" lon="-0.4154">
        <ele>1139.7802734375</ele>
        <time>2015-05-10T09:52:38Z</time>
      </trkpt>
      <trkpt lat="42.88849" lon="-0.41546">
        <ele>1141.7028808594</ele>
        <time>2015-05-10T09:54:44Z</time>
      </trkpt>
      <trkpt lat="42.88848" lon="-0.41607">
        <ele>1138.8190917969</ele>
        <time>2015-05-10T09:55:16Z</time>
      </trkpt>
      <trkpt lat="42.88873" lon="-0.41678">
        <ele>1135.4543457031</ele>
        <time>2015-05-10T09:56:00Z</time>
      </trkpt>
    </trkseg>
  </trk>
  <trk>
    <name><![CDATA[ACTIVE LOG 016]]></name>
    <trkseg>
      <trkpt lat="42.88875" lon="-0.41682">
        <ele>1136.4157714844</ele>
        <time>2015-05-10T09:56:04Z</time>
      </trkpt>
    </trkseg>
  </trk>
  <trk>
    <name><![CDATA[ACTIVE LOG 017]]></name>
    <trkseg>
      <trkpt lat="42.88869" lon="-0.41719">
        <ele>1134.4931640625</ele>
        <time>2015-05-10T09:56:25Z</time>
      </trkpt>
      <trkpt lat="42.88871" lon="-0.41729">
        <ele>1134.4931640625</ele>
        <time>2015-05-10T09:56:33Z</time>
      </trkpt>
      <trkpt lat="42.88871" lon="-0.41733">
        <ele>1133.5317382812</ele>
        <time>2015-05-10T09:56:36Z</time>
      </trkpt>
      <trkpt lat="42.88874" lon="-0.41749">
        <ele>1133.0510253906</ele>
        <time>2015-05-10T09:56:46Z</time>
      </trkpt>
      <trkpt lat="42.88875" lon="-0.41751">
        <ele>1132.08984375</ele>
        <time>2015-05-10T09:56:48Z</time>
      </trkpt>
      <trkpt lat="42.88866" lon="-0.41755">
        <ele>1132.5705566406</ele>
        <time>2015-05-10T09:56:50Z</time>
      </trkpt>
      <trkpt lat="42.88834" lon="-0.41773">
        <ele>1131.1284179688</ele>
        <time>2015-05-10T09:57:00Z</time>
      </trkpt>
      <trkpt lat="42.88821" lon="-0.41784">
        <ele>1131.6088867188</ele>
        <time>2015-05-10T09:57:05Z</time>
      </trkpt>
      <trkpt lat="42.88813" lon="-0.41803">
        <ele>1131.1284179688</ele>
        <time>2015-05-10T09:57:12Z</time>
      </trkpt>
      <trkpt lat="42.88793" lon="-0.41822">
        <ele>1129.6862792969</ele>
        <time>2015-05-10T09:57:21Z</time>
      </trkpt>
      <trkpt lat="42.88786" lon="-0.41828">
        <ele>1129.6862792969</ele>
        <time>2015-05-10T09:57:26Z</time>
      </trkpt>
      <trkpt lat="42.88784" lon="-0.41839">
        <ele>1129.2055664062</ele>
        <time>2015-05-10T09:57:33Z</time>
      </trkpt>
      <trkpt lat="42.88786" lon="-0.41843">
        <ele>1128.7250976562</ele>
        <time>2015-05-10T09:57:35Z</time>
      </trkpt>
      <trkpt lat="42.88793" lon="-0.41857">
        <ele>1128.2443847656</ele>
        <time>2015-05-10T09:57:43Z</time>
      </trkpt>
      <trkpt lat="42.8878" lon="-0.4187">
        <ele>1127.763671875</ele>
        <time>2015-05-10T09:57:51Z</time>
      </trkpt>
      <trkpt lat="42.88776" lon="-0.4188">
        <ele>1126.8024902344</ele>
        <time>2015-05-10T09:57:56Z</time>
      </trkpt>
      <trkpt lat="42.88773" lon="-0.41887">
        <ele>1126.3217773438</ele>
        <time>2015-05-10T09:58:00Z</time>
      </trkpt>
      <trkpt lat="42.88771" lon="-0.41907">
        <ele>1125.3603515625</ele>
        <time>2015-05-10T09:58:12Z</time>
      </trkpt>
      <trkpt lat="42.88772" lon="-0.41912">
        <ele>1124.8798828125</ele>
        <time>2015-05-10T09:58:15Z</time>
      </trkpt>
      <trkpt lat="42.88769" lon="-0.41918">
        <ele>1124.3991699219</ele>
        <time>2015-05-10T09:58:18Z</time>
      </trkpt>
      <trkpt lat="42.88766" lon="-0.41938">
        <ele>1123.9184570312</ele>
        <time>2015-05-10T09:58:30Z</time>
      </trkpt>
      <trkpt lat="42.8877" lon="-0.41956">
        <ele>1122.4765625</ele>
        <time>2015-05-10T09:58:41Z</time>
      </trkpt>
      <trkpt lat="42.88777" lon="-0.41973">
        <ele>1121.5151367188</ele>
        <time>2015-05-10T09:58:51Z</time>
      </trkpt>
      <trkpt lat="42.88782" lon="-0.41992">
        <ele>1120.0732421875</ele>
        <time>2015-05-10T09:59:02Z</time>
      </trkpt>
      <trkpt lat="42.88786" lon="-0.41999">
        <ele>1120.0732421875</ele>
        <time>2015-05-10T09:59:06Z</time>
      </trkpt>
      <trkpt lat="42.88795" lon="-0.4202">
        <ele>1118.6313476562</ele>
        <time>2015-05-10T09:59:18Z</time>
      </trkpt>
      <trkpt lat="42.88797" lon="-0.42024">
        <ele>1119.1120605469</ele>
        <time>2015-05-10T09:59:20Z</time>
      </trkpt>
      <trkpt lat="42.88805" lon="-0.42031">
        <ele>1118.1506347656</ele>
        <time>2015-05-10T09:59:25Z</time>
      </trkpt>
      <trkpt lat="42.88817" lon="-0.42036">
        <ele>1118.1506347656</ele>
        <time>2015-05-10T09:59:29Z</time>
      </trkpt>
      <trkpt lat="42.88822" lon="-0.42047">
        <ele>1117.669921875</ele>
        <time>2015-05-10T09:59:36Z</time>
      </trkpt>
      <trkpt lat="42.88825" lon="-0.42059">
        <ele>1117.669921875</ele>
        <time>2015-05-10T09:59:44Z</time>
      </trkpt>
      <trkpt lat="42.88825" lon="-0.42074">
        <ele>1116.2280273438</ele>
        <time>2015-05-10T09:59:53Z</time>
      </trkpt>
      <trkpt lat="42.88798" lon="-0.42088">
        <ele>1116.2280273438</ele>
        <time>2015-05-10T10:00:01Z</time>
      </trkpt>
      <trkpt lat="42.88789" lon="-0.42098">
        <ele>1115.7473144531</ele>
        <time>2015-05-10T10:00:05Z</time>
      </trkpt>
      <trkpt lat="42.88782" lon="-0.42105">
        <ele>1115.7473144531</ele>
        <time>2015-05-10T10:00:10Z</time>
      </trkpt>
      <trkpt lat="42.88778" lon="-0.42111">
        <ele>1115.7473144531</ele>
        <time>2015-05-10T10:00:13Z</time>
      </trkpt>
      <trkpt lat="42.88778" lon="-0.42129">
        <ele>1113.3439941406</ele>
        <time>2015-05-10T10:00:26Z</time>
      </trkpt>
      <trkpt lat="42.88773" lon="-0.42126">
        <ele>1113.3439941406</ele>
        <time>2015-05-10T10:00:46Z</time>
      </trkpt>
      <trkpt lat="42.88776" lon="-0.42122">
        <ele>1112.3825683594</ele>
        <time>2015-05-10T10:01:15Z</time>
      </trkpt>
      <trkpt lat="42.8877" lon="-0.42115">
        <ele>1113.3439941406</ele>
        <time>2015-05-10T10:01:31Z</time>
      </trkpt>
      <trkpt lat="42.88773" lon="-0.42117">
        <ele>1112.86328125</ele>
        <time>2015-05-10T10:02:03Z</time>
      </trkpt>
      <trkpt lat="42.88775" lon="-0.42129">
        <ele>1111.9020996094</ele>
        <time>2015-05-10T10:02:25Z</time>
      </trkpt>
      <trkpt lat="42.88771" lon="-0.42137">
        <ele>1111.9020996094</ele>
        <time>2015-05-10T10:02:45Z</time>
      </trkpt>
      <trkpt lat="42.88771" lon="-0.42126">
        <ele>1111.9020996094</ele>
        <time>2015-05-10T10:02:58Z</time>
      </trkpt>
      <trkpt lat="42.8877" lon="-0.42119">
        <ele>1110.9406738281</ele>
        <time>2015-05-10T10:03:13Z</time>
      </trkpt>
      <trkpt lat="42.88778" lon="-0.42122">
        <ele>1110.9406738281</ele>
        <time>2015-05-10T10:04:16Z</time>
      </trkpt>
      <trkpt lat="42.8878" lon="-0.42129">
        <ele>1110.9406738281</ele>
        <time>2015-05-10T10:04:30Z</time>
      </trkpt>
      <trkpt lat="42.88782" lon="-0.42137">
        <ele>1109.0180664062</ele>
        <time>2015-05-10T10:04:48Z</time>
      </trkpt>
      <trkpt lat="42.88785" lon="-0.42141">
        <ele>1107.576171875</ele>
        <time>2015-05-10T10:04:57Z</time>
      </trkpt>
      <trkpt lat="42.88785" lon="-0.4215">
        <ele>1107.576171875</ele>
        <time>2015-05-10T10:05:13Z</time>
      </trkpt>
      <trkpt lat="42.88785" lon="-0.4215">
        <ele>1108.0568847656</ele>
        <time>2015-05-10T10:05:17Z</time>
      </trkpt>
      <trkpt lat="42.8879" lon="-0.42154">
        <ele>1106.6147460938</ele>
        <time>2015-05-10T10:05:29Z</time>
      </trkpt>
      <trkpt lat="42.88791" lon="-0.42158">
        <ele>1105.1728515625</ele>
        <time>2015-05-10T10:05:59Z</time>
      </trkpt>
      <trkpt lat="42.88795" lon="-0.42166">
        <ele>1103.7309570312</ele>
        <time>2015-05-10T10:06:17Z</time>
      </trkpt>
      <trkpt lat="42.88795" lon="-0.42168">
        <ele>1103.2502441406</ele>
        <time>2015-05-10T10:06:20Z</time>
      </trkpt>
      <trkpt lat="42.88795" lon="-0.42177">
        <ele>1101.8083496094</ele>
        <time>2015-05-10T10:06:26Z</time>
      </trkpt>
      <trkpt lat="42.88794" lon="-0.42189">
        <ele>1100.3664550781</ele>
        <time>2015-05-10T10:06:38Z</time>
      </trkpt>
      <trkpt lat="42.8879" lon="-0.42203">
        <ele>1098.443359375</ele>
        <time>2015-05-10T10:06:50Z</time>
      </trkpt>
      <trkpt lat="42.88791" lon="-0.42207">
        <ele>1098.443359375</ele>
        <time>2015-05-10T10:06:53Z</time>
      </trkpt>
      <trkpt lat="42.8879" lon="-0.4222">
        <ele>1097.4821777344</ele>
        <time>2015-05-10T10:07:01Z</time>
      </trkpt>
      <trkpt lat="42.88787" lon="-0.42242">
        <ele>1096.5209960938</ele>
        <time>2015-05-10T10:07:16Z</time>
      </trkpt>
      <trkpt lat="42.88789" lon="-0.42249">
        <ele>1096.0402832031</ele>
        <time>2015-05-10T10:07:32Z</time>
      </trkpt>
      <trkpt lat="42.88785" lon="-0.42248">
        <ele>1097.0014648438</ele>
        <time>2015-05-10T10:07:48Z</time>
      </trkpt>
      <trkpt lat="42.88789" lon="-0.42254">
        <ele>1096.0402832031</ele>
        <time>2015-05-10T10:08:06Z</time>
      </trkpt>
      <trkpt lat="42.88789" lon="-0.42268">
        <ele>1094.1176757812</ele>
        <time>2015-05-10T10:08:17Z</time>
      </trkpt>
      <trkpt lat="42.88788" lon="-0.42275">
        <ele>1092.1950683594</ele>
        <time>2015-05-10T10:08:21Z</time>
      </trkpt>
      <trkpt lat="42.8879" lon="-0.42295">
        <ele>1091.7143554688</ele>
        <time>2015-05-10T10:08:34Z</time>
      </trkpt>
      <trkpt lat="42.88787" lon="-0.42321">
        <ele>1090.2724609375</ele>
        <time>2015-05-10T10:08:51Z</time>
      </trkpt>
      <trkpt lat="42.88788" lon="-0.42328">
        <ele>1089.7917480469</ele>
        <time>2015-05-10T10:08:56Z</time>
      </trkpt>
      <trkpt lat="42.88785" lon="-0.42356">
        <ele>1088.8305664062</ele>
        <time>2015-05-10T10:09:14Z</time>
      </trkpt>
      <trkpt lat="42.88784" lon="-0.42374">
        <ele>1089.3110351562</ele>
        <time>2015-05-10T10:09:27Z</time>
      </trkpt>
      <trkpt lat="42.88781" lon="-0.4238">
        <ele>1089.3110351562</ele>
        <time>2015-05-10T10:09:31Z</time>
      </trkpt>
      <trkpt lat="42.8877" lon="-0.42407">
        <ele>1089.3110351562</ele>
        <time>2015-05-10T10:09:48Z</time>
      </trkpt>
      <trkpt lat="42.88767" lon="-0.42411">
        <ele>1088.8305664062</ele>
        <time>2015-05-10T10:09:51Z</time>
      </trkpt>
      <trkpt lat="42.88761" lon="-0.42431">
        <ele>1086.9077148438</ele>
        <time>2015-05-10T10:10:05Z</time>
      </trkpt>
      <trkpt lat="42.88756" lon="-0.42444">
        <ele>1086.9077148438</ele>
        <time>2015-05-10T10:10:18Z</time>
      </trkpt>
      <trkpt lat="42.88751" lon="-0.42449">
        <ele>1085.9465332031</ele>
        <time>2015-05-10T10:10:22Z</time>
      </trkpt>
      <trkpt lat="42.88745" lon="-0.42457">
        <ele>1084.0239257812</ele>
        <time>2015-05-10T10:10:33Z</time>
      </trkpt>
      <trkpt lat="42.88746" lon="-0.42459">
        <ele>1084.5046386719</ele>
        <time>2015-05-10T10:10:47Z</time>
      </trkpt>
      <trkpt lat="42.88742" lon="-0.42467">
        <ele>1084.5046386719</ele>
        <time>2015-05-10T10:11:01Z</time>
      </trkpt>
      <trkpt lat="42.88739" lon="-0.42469">
        <ele>1084.5046386719</ele>
        <time>2015-05-10T10:11:19Z</time>
      </trkpt>
      <trkpt lat="42.88737" lon="-0.42471">
        <ele>1084.0239257812</ele>
        <time>2015-05-10T10:11:39Z</time>
      </trkpt>
      <trkpt lat="42.88734" lon="-0.42478">
        <ele>1082.5817871094</ele>
        <time>2015-05-10T10:12:07Z</time>
      </trkpt>
      <trkpt lat="42.8873" lon="-0.42481">
        <ele>1081.6203613281</ele>
        <time>2015-05-10T10:12:21Z</time>
      </trkpt>
      <trkpt lat="42.88729" lon="-0.42493">
        <ele>1080.1784667969</ele>
        <time>2015-05-10T10:12:37Z</time>
      </trkpt>
      <trkpt lat="42.88731" lon="-0.42497">
        <ele>1079.6977539062</ele>
        <time>2015-05-10T10:13:28Z</time>
      </trkpt>
      <trkpt lat="42.88724" lon="-0.42511">
        <ele>1078.255859375</ele>
        <time>2015-05-10T10:13:42Z</time>
      </trkpt>
      <trkpt lat="42.8872" lon="-0.42523">
        <ele>1075.8525390625</ele>
        <time>2015-05-10T10:13:59Z</time>
      </trkpt>
      <trkpt lat="42.88718" lon="-0.42537">
        <ele>1075.3718261719</ele>
        <time>2015-05-10T10:14:10Z</time>
      </trkpt>
      <trkpt lat="42.88716" lon="-0.42551">
        <ele>1074.8913574219</ele>
        <time>2015-05-10T10:14:22Z</time>
      </trkpt>
      <trkpt lat="42.88718" lon="-0.42568">
        <ele>1072.0073242188</ele>
        <time>2015-05-10T10:14:36Z</time>
      </trkpt>
      <trkpt lat="42.88711" lon="-0.4258">
        <ele>1070.5654296875</ele>
        <time>2015-05-10T10:14:47Z</time>
      </trkpt>
      <trkpt lat="42.88708" lon="-0.42589">
        <ele>1069.6042480469</ele>
        <time>2015-05-10T10:14:55Z</time>
      </trkpt>
      <trkpt lat="42.88706" lon="-0.4259">
        <ele>1069.6042480469</ele>
        <time>2015-05-10T10:15:17Z</time>
      </trkpt>
      <trkpt lat="42.88704" lon="-0.42593">
        <ele>1068.6428222656</ele>
        <time>2015-05-10T10:15:32Z</time>
      </trkpt>
      <trkpt lat="42.88702" lon="-0.42606">
        <ele>1067.2006835938</ele>
        <time>2015-05-10T10:15:44Z</time>
      </trkpt>
      <trkpt lat="42.887" lon="-0.42614">
        <ele>1064.3166503906</ele>
        <time>2015-05-10T10:15:53Z</time>
      </trkpt>
      <trkpt lat="42.88702" lon="-0.42624">
        <ele>1062.3940429688</ele>
        <time>2015-05-10T10:16:07Z</time>
      </trkpt>
      <trkpt lat="42.88697" lon="-0.42632">
        <ele>1061.4328613281</ele>
        <time>2015-05-10T10:16:35Z</time>
      </trkpt>
      <trkpt lat="42.88701" lon="-0.42624">
        <ele>1062.3940429688</ele>
        <time>2015-05-10T10:16:49Z</time>
      </trkpt>
      <trkpt lat="42.88707" lon="-0.42617">
        <ele>1062.8747558594</ele>
        <time>2015-05-10T10:17:01Z</time>
      </trkpt>
      <trkpt lat="42.88707" lon="-0.42617">
        <ele>1063.35546875</ele>
        <time>2015-05-10T10:17:03Z</time>
      </trkpt>
      <trkpt lat="42.8871" lon="-0.42615">
        <ele>1063.35546875</ele>
        <time>2015-05-10T10:17:06Z</time>
      </trkpt>
      <trkpt lat="42.88714" lon="-0.42611">
        <ele>1063.8359375</ele>
        <time>2015-05-10T10:17:11Z</time>
      </trkpt>
      <trkpt lat="42.88719" lon="-0.42611">
        <ele>1063.8359375</ele>
        <time>2015-05-10T10:17:16Z</time>
      </trkpt>
      <trkpt lat="42.88721" lon="-0.4261">
        <ele>1064.7973632812</ele>
        <time>2015-05-10T10:17:18Z</time>
      </trkpt>
      <trkpt lat="42.88727" lon="-0.42604">
        <ele>1064.3166503906</ele>
        <time>2015-05-10T10:17:27Z</time>
      </trkpt>
      <trkpt lat="42.88717" lon="-0.42617">
        <ele>1063.35546875</ele>
        <time>2015-05-10T10:17:40Z</time>
      </trkpt>
      <trkpt lat="42.88707" lon="-0.42627">
        <ele>1062.3940429688</ele>
        <time>2015-05-10T10:17:52Z</time>
      </trkpt>
      <trkpt lat="42.88703" lon="-0.42647">
        <ele>1059.5102539062</ele>
        <time>2015-05-10T10:18:08Z</time>
      </trkpt>
      <trkpt lat="42.88704" lon="-0.42662">
        <ele>1059.0295410156</ele>
        <time>2015-05-10T10:18:19Z</time>
      </trkpt>
      <trkpt lat="42.88702" lon="-0.42664">
        <ele>1058.548828125</ele>
        <time>2015-05-10T10:18:20Z</time>
      </trkpt>
      <trkpt lat="42.88698" lon="-0.42698">
        <ele>1058.068359375</ele>
        <time>2015-05-10T10:18:38Z</time>
      </trkpt>
      <trkpt lat="42.88703" lon="-0.42715">
        <ele>1056.6262207031</ele>
        <time>2015-05-10T10:18:50Z</time>
      </trkpt>
      <trkpt lat="42.88709" lon="-0.42722">
        <ele>1056.6262207031</ele>
        <time>2015-05-10T10:18:56Z</time>
      </trkpt>
      <trkpt lat="42.88725" lon="-0.42738">
        <ele>1055.6650390625</ele>
        <time>2015-05-10T10:19:13Z</time>
      </trkpt>
      <trkpt lat="42.88746" lon="-0.42742">
        <ele>1055.1843261719</ele>
        <time>2015-05-10T10:19:31Z</time>
      </trkpt>
      <trkpt lat="42.88757" lon="-0.42741">
        <ele>1053.7424316406</ele>
        <time>2015-05-10T10:19:47Z</time>
      </trkpt>
      <trkpt lat="42.8876" lon="-0.42741">
        <ele>1052.7810058594</ele>
        <time>2015-05-10T10:20:28Z</time>
      </trkpt>
      <trkpt lat="42.88759" lon="-0.42742">
        <ele>1052.3002929688</ele>
        <time>2015-05-10T10:21:19Z</time>
      </trkpt>
      <trkpt lat="42.88759" lon="-0.42733">
        <ele>1052.3002929688</ele>
        <time>2015-05-10T10:21:33Z</time>
      </trkpt>
      <trkpt lat="42.88751" lon="-0.42726">
        <ele>1052.7810058594</ele>
        <time>2015-05-10T10:21:47Z</time>
      </trkpt>
      <trkpt lat="42.88743" lon="-0.42731">
        <ele>1053.7424316406</ele>
        <time>2015-05-10T10:22:03Z</time>
      </trkpt>
      <trkpt lat="42.88739" lon="-0.42727">
        <ele>1052.7810058594</ele>
        <time>2015-05-10T10:22:14Z</time>
      </trkpt>
      <trkpt lat="42.8875" lon="-0.42716">
        <ele>1052.7810058594</ele>
        <time>2015-05-10T10:22:39Z</time>
      </trkpt>
    </trkseg>
  </trk>
</gpx>